Time;durP1;ratioP1;P1;durP2;ratioP2;P2;SDS_P1;SDS_P2;PMS_P1;PMS_P2;Temp;Humidity;BMP_temperature;BMP_pressure;BME280_temperature;BME280_humidity;BME280_pressure;Samples;Min_cycle;Max_cycle;Signal;HPM_P1;HPM_P2
2022/03/13 00:00:48;;;;;;;16.27;5.25;;;10.10;60.50;;;;;;4990903;28;20125;-63
2022/03/13 00:03:15;;;;;;;13.55;4.43;;;10.10;60.70;;;;;;4996469;28;20345;-63
2022/03/13 00:05:45;;;;;;;11.32;4.82;;;10.10;61.00;;;;;;4998375;28;20499;-63
2022/03/13 00:08:27;;;;;;;14.13;4.90;;;10.10;60.70;;;;;;5001728;28;20060;-63
2022/03/13 00:11:08;;;;;;;12.93;5.20;;;10.10;60.80;;;;;;4999848;28;20388;-63
2022/03/13 00:13:37;;;;;;;11.45;4.68;;;10.10;61.50;;;;;;5000945;28;20091;-62
2022/03/13 00:16:08;;;;;;;14.27;4.82;;;10.10;60.70;;;;;;5001099;28;20066;-63
2022/03/13 00:18:44;;;;;;;11.93;3.78;;;10.10;61.40;;;;;;5005201;28;20030;-63
2022/03/13 00:21:10;;;;;;;10.13;5.13;;;10.10;60.70;;;;;;5001843;28;20037;-62
2022/03/13 00:23:36;;;;;;;8.73;4.45;;;10.10;60.70;;;;;;4999028;28;20030;-63
2022/03/13 00:26:02;;;;;;;11.32;5.03;;;10.10;60.50;;;;;;5003598;28;20076;-63
2022/03/13 00:28:29;;;;;;;11.55;4.18;;;10.10;60.80;;;;;;5005009;28;20087;-63
2022/03/13 00:30:54;;;;;;;9.38;4.65;;;10.10;60.80;;;;;;5000885;28;20045;-62
2022/03/13 00:33:22;;;;;;;7.38;3.95;;;10.10;60.60;;;;;;4999499;28;20061;-62
2022/03/13 00:35:49;;;;;;;14.02;4.22;;;10.10;60.90;;;;;;4997892;28;20037;-62
2022/03/13 00:38:15;;;;;;;8.25;3.60;;;10.10;60.60;;;;;;5000297;28;20109;-62
2022/03/13 00:40:41;;;;;;;8.43;4.10;;;10.10;60.70;;;;;;5005347;28;20449;-63
2022/03/13 00:43:07;;;;;;;10.95;3.83;;;10.10;60.80;;;;;;4995321;28;20042;-61
2022/03/13 00:48:55;;;;;;;8.27;4.03;;;10.00;60.60;;;;;;5061213;23;20056;-64
2022/03/13 00:51:20;;;;;;;12.48;4.88;;;10.00;60.70;;;;;;5049801;28;20040;-65
2022/03/13 00:53:47;;;;;;;9.07;4.03;;;10.00;60.60;;;;;;5025316;28;20116;-65
2022/03/13 00:56:12;;;;;;;9.55;3.75;;;10.00;60.60;;;;;;5017879;28;20021;-65
2022/03/13 00:58:39;;;;;;;11.35;4.47;;;10.00;60.50;;;;;;5057666;28;20036;-64
2022/03/13 01:01:05;;;;;;;12.27;3.88;;;10.00;60.40;;;;;;5049423;28;20031;-65
2022/03/13 01:03:36;;;;;;;7.80;3.65;;;10.00;60.50;;;;;;5047357;28;20029;-65
2022/03/13 01:06:04;;;;;;;11.48;4.07;;;10.00;61.30;;;;;;5063473;28;20173;-65
2022/03/13 01:08:30;;;;;;;7.13;3.22;;;10.00;60.50;;;;;;5033280;28;20469;-65
2022/03/13 01:10:58;;;;;;;9.43;3.72;;;10.00;60.40;;;;;;5048548;28;20028;-64
2022/03/13 01:13:24;;;;;;;8.02;3.85;;;10.00;60.60;;;;;;5050831;28;20033;-65
2022/03/13 01:15:54;;;;;;;10.20;3.90;;;10.00;60.30;;;;;;5056919;28;20039;-64
2022/03/13 01:18:19;;;;;;;6.97;3.53;;;10.00;60.20;;;;;;5063098;28;20033;-65
2022/03/13 01:20:47;;;;;;;6.95;3.53;;;10.00;60.60;;;;;;5052426;28;20025;-64
2022/03/13 01:23:15;;;;;;;8.85;3.60;;;10.00;60.50;;;;;;5054455;28;20013;-65
2022/03/13 01:25:41;;;;;;;7.28;3.72;;;10.00;60.60;;;;;;5061199;28;20028;-65
2022/03/13 01:28:07;;;;;;;14.98;4.03;;;10.00;60.30;;;;;;5050500;28;20090;-65
2022/03/13 01:30:32;;;;;;;5.78;3.22;;;10.00;60.20;;;;;;5034208;28;20021;-65
2022/03/13 01:32:58;;;;;;;9.45;3.47;;;10.00;60.50;;;;;;5050339;28;20569;-64
2022/03/13 01:35:25;;;;;;;5.43;2.97;;;10.00;60.40;;;;;;5034061;28;20894;-64
2022/03/13 01:37:52;;;;;;;9.45;3.78;;;10.00;60.40;;;;;;5062828;28;20024;-65
2022/03/13 01:43:59;;;;;;;7.18;3.50;;;10.00;60.20;;;;;;5075882;28;20067;-65
2022/03/13 01:46:28;;;;;;;6.00;3.45;;;10.00;60.30;;;;;;5056904;28;20058;-65
2022/03/13 01:49:05;;;;;;;6.25;3.63;;;10.00;60.40;;;;;;5060936;28;20033;-64
2022/03/13 01:51:32;;;;;;;7.53;3.50;;;10.00;60.20;;;;;;5062311;28;20032;-64
2022/03/13 01:54:01;;;;;;;6.78;3.58;;;9.90;60.10;;;;;;5057073;28;20391;-64
2022/03/13 01:56:29;;;;;;;7.70;3.63;;;10.00;60.20;;;;;;5049967;28;20056;-64
2022/03/13 01:58:56;;;;;;;10.43;3.20;;;9.90;60.30;;;;;;5048251;28;20115;-64
2022/03/13 02:01:25;;;;;;;6.18;3.28;;;9.90;60.30;;;;;;5051113;28;20021;-65
2022/03/13 02:03:51;;;;;;;7.97;3.45;;;9.90;60.20;;;;;;5046145;28;20013;-65
2022/03/13 02:06:17;;;;;;;7.63;3.67;;;9.90;60.40;;;;;;5050515;28;20068;-65
2022/03/13 02:08:47;;;;;;;7.05;3.45;;;9.90;60.30;;;;;;5051566;28;20534;-65
2022/03/13 02:11:19;;;;;;;5.88;3.67;;;9.90;60.50;;;;;;5051194;28;20035;-65
2022/03/13 02:13:47;;;;;;;10.07;3.53;;;9.90;60.30;;;;;;5046863;28;20522;-65
2022/03/13 02:16:14;;;;;;;5.30;3.22;;;9.90;60.40;;;;;;5051224;28;20021;-65
2022/03/13 02:18:41;;;;;;;6.65;3.40;;;9.90;60.50;;;;;;5045200;28;20029;-64
2022/03/13 02:21:08;;;;;;;6.50;2.92;;;9.90;60.40;;;;;;5013873;28;20052;-65
2022/03/13 02:23:35;;;;;;;8.65;3.47;;;9.90;60.50;;;;;;5031543;28;20100;-65
2022/03/13 02:26:03;;;;;;;7.55;3.10;;;9.90;60.20;;;;;;5030445;28;20095;-65
2022/03/13 02:28:32;;;;;;;7.97;3.33;;;9.90;60.40;;;;;;5015769;28;20433;-65
2022/03/13 02:31:02;;;;;;;7.40;3.15;;;9.90;60.30;;;;;;5049592;28;20492;-65
2022/03/13 02:33:28;;;;;;;5.63;3.45;;;9.80;60.60;;;;;;5040018;28;20482;-64
2022/03/13 02:36:00;;;;;;;5.35;2.88;;;9.90;60.40;;;;;;5050997;28;20025;-65
2022/03/13 02:38:27;;;;;;;6.22;3.17;;;9.90;60.50;;;;;;5052707;28;20389;-65
2022/03/13 02:40:54;;;;;;;5.93;3.22;;;9.90;60.30;;;;;;5054502;28;20478;-64
2022/03/13 02:43:20;;;;;;;8.90;3.63;;;9.90;60.30;;;;;;5049826;28;20028;-64
2022/03/13 02:45:46;;;;;;;9.07;3.60;;;9.90;60.40;;;;;;5054147;28;20016;-65
2022/03/13 02:48:12;;;;;;;8.43;3.80;;;9.80;60.20;;;;;;5052418;28;20543;-65
2022/03/13 02:50:39;;;;;;;7.72;3.92;;;9.80;60.20;;;;;;5049900;28;20029;-65
2022/03/13 02:53:06;;;;;;;15.10;4.50;;;9.90;60.10;;;;;;5032408;28;20032;-65
2022/03/13 02:55:32;;;;;;;9.85;4.43;;;9.80;60.40;;;;;;5050600;28;20482;-65
2022/03/13 02:57:58;;;;;;;10.82;4.20;;;9.80;60.20;;;;;;5051529;28;20424;-64
2022/03/13 03:00:49;;;;;;;7.68;3.47;;;9.80;60.20;;;;;;5049965;28;20238;-65
2022/03/13 03:03:19;;;;;;;9.43;3.70;;;9.80;60.10;;;;;;5049622;28;20020;-65
2022/03/13 03:05:45;;;;;;;11.88;4.10;;;9.80;60.00;;;;;;5049974;28;20377;-65
2022/03/13 03:08:12;;;;;;;11.35;3.90;;;9.80;60.20;;;;;;5050732;28;20759;-64
2022/03/13 03:10:38;;;;;;;13.27;4.15;;;9.80;60.30;;;;;;5069637;28;20523;-64
2022/03/13 03:13:05;;;;;;;12.30;4.35;;;9.80;60.20;;;;;;5044547;28;20119;-65
2022/03/13 03:15:31;;;;;;;12.30;4.78;;;9.80;60.20;;;;;;5042607;28;20025;-65
2022/03/13 03:17:57;;;;;;;12.45;3.78;;;9.80;60.20;;;;;;5050313;28;20021;-65
2022/03/13 03:20:23;;;;;;;10.57;4.32;;;9.80;60.40;;;;;;5049044;28;20033;-64
2022/03/13 03:22:53;;;;;;;9.60;4.57;;;9.80;60.40;;;;;;5050281;28;20045;-64
2022/03/13 03:25:24;;;;;;;8.57;3.63;;;9.80;60.50;;;;;;5046021;28;20083;-65
2022/03/13 03:27:51;;;;;;;10.32;4.10;;;9.80;60.20;;;;;;5050529;28;20535;-65
2022/03/13 03:30:22;;;;;;;9.10;3.42;;;9.80;60.20;;;;;;5031401;28;20021;-65
2022/03/13 03:32:49;;;;;;;10.55;3.08;;;9.80;60.20;;;;;;5031089;28;20013;-65
2022/03/13 03:35:17;;;;;;;7.13;3.63;;;9.70;60.10;;;;;;5045405;28;20025;-65
2022/03/13 03:37:43;;;;;;;5.68;3.33;;;9.70;60.30;;;;;;5047383;28;20025;-65
2022/03/13 03:40:10;;;;;;;12.70;3.53;;;9.70;60.30;;;;;;5048562;28;20025;-65
2022/03/13 03:42:36;;;;;;;8.32;3.47;;;9.70;60.50;;;;;;5049455;28;20116;-65
2022/03/13 03:45:02;;;;;;;5.93;3.35;;;9.70;60.30;;;;;;5050049;28;20128;-65
2022/03/13 03:47:28;;;;;;;7.78;3.33;;;9.70;60.50;;;;;;5035558;28;20033;-65
2022/03/13 03:49:54;;;;;;;8.55;4.15;;;9.70;61.20;;;;;;5048098;28;20029;-65
2022/03/13 03:52:19;;;;;;;8.52;3.30;;;9.70;60.20;;;;;;5066370;28;20031;-65
2022/03/13 03:54:45;;;;;;;6.72;3.20;;;9.70;60.20;;;;;;5069694;28;20033;-65
2022/03/13 03:57:11;;;;;;;8.38;3.70;;;9.70;60.10;;;;;;5050938;28;20389;-64
2022/03/13 03:59:36;;;;;;;6.40;3.42;;;9.70;60.00;;;;;;5047524;28;20036;-65
2022/03/13 04:02:02;;;;;;;10.05;3.38;;;9.70;60.30;;;;;;5068568;28;20021;-64
2022/03/13 04:04:28;;;;;;;11.98;3.38;;;9.70;60.30;;;;;;5063489;28;20027;-65
2022/03/13 04:06:53;;;;;;;7.10;2.75;;;9.70;60.40;;;;;;5049495;28;20032;-65
2022/03/13 04:09:19;;;;;;;18.92;3.80;;;9.70;60.40;;;;;;5049216;28;20025;-65
2022/03/13 04:11:46;;;;;;;6.80;3.05;;;9.70;60.30;;;;;;5048834;28;20056;-65
2022/03/13 04:14:13;;;;;;;9.27;3.95;;;9.70;60.40;;;;;;5049836;28;20515;-65
2022/03/13 04:16:38;;;;;;;7.55;3.63;;;9.70;60.30;;;;;;5039242;28;20063;-65
2022/03/13 04:19:04;;;;;;;9.73;3.38;;;9.70;60.40;;;;;;5048739;28;20056;-65
2022/03/13 04:21:30;;;;;;;4.90;2.90;;;9.70;60.10;;;;;;5034908;28;20017;-64
2022/03/13 04:23:55;;;;;;;6.82;3.03;;;9.70;60.00;;;;;;5053386;28;20051;-65
2022/03/13 04:26:25;;;;;;;5.97;2.95;;;9.70;60.10;;;;;;5065297;28;20032;-64
2022/03/13 04:28:50;;;;;;;7.35;3.33;;;9.70;60.10;;;;;;5049123;28;20384;-65
2022/03/13 04:31:18;;;;;;;6.55;3.55;;;9.70;60.10;;;;;;5060586;28;20111;-64
2022/03/13 04:33:44;;;;;;;11.52;3.50;;;9.70;60.20;;;;;;5041733;28;20041;-65
2022/03/13 04:36:14;;;;;;;8.77;3.17;;;9.60;60.20;;;;;;5035617;28;20040;-65
2022/03/13 04:38:43;;;;;;;9.75;3.67;;;9.60;60.20;;;;;;5041051;28;20048;-65
2022/03/13 04:41:09;;;;;;;6.38;3.10;;;9.60;60.40;;;;;;5049227;28;20029;-65
2022/03/13 04:43:35;;;;;;;6.28;3.67;;;9.60;60.40;;;;;;5045657;28;20029;-65
2022/03/13 04:46:00;;;;;;;10.00;3.67;;;9.60;60.30;;;;;;5046849;28;21035;-65
2022/03/13 04:48:27;;;;;;;11.18;3.78;;;9.60;60.50;;;;;;5060366;28;20190;-65
2022/03/13 04:50:52;;;;;;;7.25;3.83;;;9.60;60.20;;;;;;5046454;28;20106;-65
2022/03/13 04:53:18;;;;;;;7.25;3.67;;;9.60;60.20;;;;;;5071870;28;20029;-65
2022/03/13 04:55:44;;;;;;;4.68;3.03;;;9.60;60.50;;;;;;5046603;28;20017;-65
2022/03/13 04:58:10;;;;;;;9.00;3.85;;;9.60;60.10;;;;;;5059540;28;20056;-65
2022/03/13 05:00:38;;;;;;;9.32;4.18;;;9.60;60.30;;;;;;5068664;28;20427;-65
2022/03/13 05:03:05;;;;;;;17.10;4.90;;;9.60;60.40;;;;;;5069010;28;20021;-64
2022/03/13 05:05:32;;;;;;;9.05;3.97;;;9.60;60.40;;;;;;5053618;28;20363;-63
2022/03/13 05:07:58;;;;;;;12.45;4.50;;;9.60;60.40;;;;;;5054052;28;20052;-64
2022/03/13 05:10:32;;;;;;;12.40;4.57;;;9.60;60.50;;;;;;5057261;28;20465;-64
2022/03/13 05:12:58;;;;;;;13.45;4.43;;;9.60;60.40;;;;;;5058605;28;20043;-63
2022/03/13 05:15:24;;;;;;;12.32;5.50;;;9.60;60.70;;;;;;5042931;28;20029;-63
2022/03/13 05:17:50;;;;;;;14.95;5.32;;;9.60;60.30;;;;;;5066803;28;20548;-63
2022/03/13 05:20:16;;;;;;;9.35;4.43;;;9.60;60.40;;;;;;5050885;28;20486;-64
2022/03/13 05:22:42;;;;;;;7.18;3.90;;;9.60;60.30;;;;;;5014320;28;20029;-64
2022/03/13 05:25:08;;;;;;;6.60;3.15;;;9.60;60.50;;;;;;5031214;28;20106;-63
2022/03/13 05:27:33;;;;;;;7.72;3.10;;;9.60;60.30;;;;;;5032253;28;20508;-63
2022/03/13 05:29:59;;;;;;;8.38;3.75;;;9.60;60.50;;;;;;5032182;28;20112;-64
2022/03/13 05:32:24;;;;;;;8.07;4.03;;;9.60;60.40;;;;;;5032073;28;20021;-63
2022/03/13 05:34:50;;;;;;;6.85;2.95;;;9.60;60.30;;;;;;5031640;28;20486;-64
2022/03/13 05:37:16;;;;;;;10.82;3.90;;;9.60;60.20;;;;;;5052810;28;20057;-64
2022/03/13 05:39:41;;;;;;;7.07;2.90;;;9.60;60.50;;;;;;5061692;28;20025;-64
2022/03/13 05:42:07;;;;;;;7.00;3.45;;;9.60;60.20;;;;;;5062592;28;20100;-64
2022/03/13 05:44:35;;;;;;;9.93;3.20;;;9.60;60.20;;;;;;5062059;28;20043;-64
2022/03/13 05:47:02;;;;;;;7.25;3.00;;;9.60;60.40;;;;;;5062273;28;20029;-64
2022/03/13 05:49:27;;;;;;;7.40;3.78;;;9.60;60.10;;;;;;5060032;28;20020;-63
2022/03/13 05:51:53;;;;;;;8.15;3.40;;;9.60;60.30;;;;;;5060377;28;20034;-64
2022/03/13 05:54:20;;;;;;;7.40;3.08;;;9.60;60.60;;;;;;5060077;28;20029;-63
2022/03/13 05:56:46;;;;;;;11.05;3.45;;;9.60;60.50;;;;;;5065554;28;20040;-63
2022/03/13 05:59:12;;;;;;;6.88;3.17;;;9.60;60.30;;;;;;5071728;28;20021;-64
2022/03/13 06:01:38;;;;;;;8.15;3.78;;;9.60;60.30;;;;;;5070990;28;20033;-63
2022/03/13 06:04:05;;;;;;;6.78;3.20;;;9.60;60.10;;;;;;5071682;28;20031;-63
2022/03/13 06:06:33;;;;;;;8.38;3.58;;;9.60;60.10;;;;;;5057436;28;20029;-64
2022/03/13 06:08:58;;;;;;;7.40;3.25;;;9.60;60.20;;;;;;5051757;28;20474;-64
2022/03/13 06:11:24;;;;;;;7.82;2.92;;;9.60;60.20;;;;;;5051925;28;20070;-63
2022/03/13 06:17:13;;;;;;;6.72;3.08;;;9.60;60.20;;;;;;5052968;28;20159;-64
2022/03/13 06:19:42;;;;;;;7.13;3.40;;;9.60;60.20;;;;;;5051825;28;20049;-64
2022/03/13 06:22:12;;;;;;;6.63;3.70;;;9.60;60.20;;;;;;5050273;28;20499;-64
2022/03/13 06:24:38;;;;;;;7.65;3.00;;;9.60;60.00;;;;;;5051691;28;20013;-64
2022/03/13 06:27:06;;;;;;;7.63;4.07;;;9.60;60.20;;;;;;5051902;28;20033;-63
2022/03/13 06:29:32;;;;;;;6.65;3.60;;;9.60;60.00;;;;;;5051361;28;20040;-63
2022/03/13 06:31:58;;;;;;;11.65;3.38;;;9.60;60.00;;;;;;5053725;28;20090;-63
2022/03/13 06:34:24;;;;;;;10.65;4.25;;;9.60;60.00;;;;;;5051331;28;20072;-64
2022/03/13 06:36:50;;;;;;;9.73;3.83;;;9.60;60.00;;;;;;5049966;28;20036;-63
2022/03/13 06:39:16;;;;;;;6.75;3.22;;;9.70;59.90;;;;;;5042089;28;20028;-64
2022/03/13 06:41:42;;;;;;;7.57;3.20;;;9.70;60.00;;;;;;5050191;28;20429;-64
2022/03/13 06:44:08;;;;;;;5.50;3.42;;;9.70;60.10;;;;;;5051447;28;20021;-64
2022/03/13 06:46:34;;;;;;;6.25;3.13;;;9.70;60.10;;;;;;5051240;28;20116;-63
2022/03/13 06:49:01;;;;;;;5.53;3.05;;;9.80;60.40;;;;;;5059999;28;20085;-63
2022/03/13 06:51:27;;;;;;;6.63;3.47;;;9.90;60.30;;;;;;5057231;28;20547;-64
2022/03/13 06:53:52;;;;;;;21.65;3.65;;;10.00;59.80;;;;;;5058763;28;20044;-64
2022/03/13 06:56:18;;;;;;;6.75;4.32;;;10.10;59.80;;;;;;5061712;28;20107;-64
2022/03/13 06:58:44;;;;;;;9.60;3.60;;;10.20;59.80;;;;;;5049107;28;20075;-64
2022/03/13 07:01:10;;;;;;;9.52;3.50;;;10.20;59.20;;;;;;5066046;28;20020;-64
2022/03/13 07:03:36;;;;;;;8.68;3.78;;;10.30;59.30;;;;;;5054459;28;20401;-64
2022/03/13 07:09:11;;;;;;;10.27;3.30;;;10.30;58.70;;;;;;5053139;23;20089;-61
2022/03/13 07:11:37;;;;;;;12.07;4.32;;;10.20;59.10;;;;;;5029943;28;20061;-61
2022/03/13 07:14:07;;;;;;;8.88;3.90;;;10.20;59.20;;;;;;5031549;28;20033;-61
2022/03/13 07:16:32;;;;;;;8.18;3.53;;;10.30;58.90;;;;;;5028109;28;20064;-61
2022/03/13 07:18:58;;;;;;;6.93;3.55;;;10.30;58.80;;;;;;5028782;28;20592;-61
2022/03/13 07:21:24;;;;;;;10.63;4.30;;;10.30;59.20;;;;;;5030068;28;20025;-61
2022/03/13 07:23:50;;;;;;;6.90;4.07;;;10.40;59.10;;;;;;5028322;28;20441;-61
2022/03/13 07:26:15;;;;;;;11.15;4.18;;;10.40;59.90;;;;;;5029684;28;20028;-61
2022/03/13 07:28:41;;;;;;;12.77;4.47;;;10.50;59.80;;;;;;5029484;28;20025;-61
2022/03/13 07:31:07;;;;;;;6.63;3.40;;;10.60;59.50;;;;;;5029250;28;20095;-61
2022/03/13 07:33:33;;;;;;;12.13;5.00;;;10.60;59.30;;;;;;5029173;28;20064;-60
2022/03/13 07:35:59;;;;;;;10.80;4.15;;;10.60;59.30;;;;;;5030281;28;20025;-61
2022/03/13 07:38:24;;;;;;;6.35;3.80;;;10.70;59.20;;;;;;5027847;28;20101;-60
2022/03/13 07:40:50;;;;;;;5.88;3.20;;;10.70;59.00;;;;;;5031128;28;20036;-65
2022/03/13 07:43:17;;;;;;;7.50;3.65;;;10.50;54.90;;;;;;5031014;28;20016;-65
2022/03/13 07:45:42;;;;;;;8.32;3.38;;;9.90;50.50;;;;;;5036911;28;20029;-65
2022/03/13 07:48:08;;;;;;;9.68;4.68;;;9.40;49.80;;;;;;5027844;28;20384;-65
2022/03/13 07:50:34;;;;;;;5.75;3.00;;;9.20;50.30;;;;;;5029441;28;20527;-65
2022/03/13 07:52:59;;;;;;;7.35;3.05;;;9.10;49.70;;;;;;5022390;28;20109;-65
2022/03/13 07:55:25;;;;;;;6.35;3.67;;;8.90;48.20;;;;;;5026442;28;20026;-65
2022/03/13 07:57:51;;;;;;;7.97;3.42;;;8.80;48.90;;;;;;5034357;28;20079;-65
2022/03/13 08:00:18;;;;;;;11.07;3.42;;;8.80;49.40;;;;;;5028396;28;20072;-66
2022/03/13 08:02:53;;;;;;;12.20;3.05;;;8.70;48.30;;;;;;5009910;28;20363;-65
2022/03/13 08:05:23;;;;;;;10.68;3.00;;;8.70;48.50;;;;;;5029522;28;20037;-66
2022/03/13 08:07:51;;;;;;;14.85;3.55;;;8.70;48.30;;;;;;5028378;28;20036;-65
2022/03/13 08:10:21;;;;;;;9.95;3.95;;;8.70;48.80;;;;;;5029581;28;20030;-66
2022/03/13 08:12:48;;;;;;;12.20;4.57;;;8.60;48.10;;;;;;5028748;28;20021;-66
2022/03/13 08:15:14;;;;;;;8.63;4.70;;;8.40;46.80;;;;;;5028894;28;20146;-65
2022/03/13 08:17:40;;;;;;;10.45;5.22;;;8.50;47.40;;;;;;5029762;28;20118;-65
2022/03/13 08:20:07;;;;;;;14.75;5.75;;;8.60;47.30;;;;;;5029425;28;20100;-65
2022/03/13 08:22:32;;;;;;;3.78;2.22;;;8.60;46.90;;;;;;5026191;28;20032;-65
2022/03/13 08:24:58;;;;;;;7.93;3.90;;;8.50;46.80;;;;;;5030699;28;20021;-66
2022/03/13 08:27:24;;;;;;;7.40;4.25;;;8.70;46.70;;;;;;5032701;28;20117;-66
2022/03/13 08:29:50;;;;;;;11.30;5.35;;;8.70;46.10;;;;;;5033199;28;20029;-66
2022/03/13 08:32:16;;;;;;;8.30;3.20;;;8.70;46.70;;;;;;5032686;28;20448;-65
2022/03/13 08:34:44;;;;;;;15.02;6.38;;;8.60;46.60;;;;;;5033169;28;20029;-66
2022/03/13 08:37:10;;;;;;;7.82;3.20;;;8.70;47.00;;;;;;5032484;28;20033;-66
2022/03/13 08:39:36;;;;;;;15.57;4.65;;;8.60;47.10;;;;;;5033168;28;20033;-66
2022/03/13 08:42:03;;;;;;;9.82;4.70;;;8.70;46.40;;;;;;5031892;28;20025;-66
2022/03/13 08:44:29;;;;;;;14.98;5.30;;;8.80;46.90;;;;;;5031297;28;20030;-66
2022/03/13 08:46:55;;;;;;;12.55;5.57;;;8.80;46.60;;;;;;5032801;28;20037;-66
2022/03/13 08:49:20;;;;;;;15.18;6.28;;;8.70;46.20;;;;;;5032654;28;20036;-66
2022/03/13 08:51:46;;;;;;;14.88;6.40;;;8.70;46.80;;;;;;5032691;28;20030;-66
2022/03/13 08:54:16;;;;;;;14.27;5.72;;;8.70;46.50;;;;;;5032277;28;20044;-66
2022/03/13 08:56:42;;;;;;;11.83;5.87;;;8.80;46.60;;;;;;5032701;28;20317;-66
2022/03/13 08:59:08;;;;;;;14.10;5.07;;;8.80;46.50;;;;;;5032413;28;20276;-66
2022/03/13 09:01:34;;;;;;;6.03;3.08;;;8.80;46.10;;;;;;5032897;28;20025;-65
2022/03/13 09:04:00;;;;;;;9.32;4.30;;;8.80;46.40;;;;;;5032935;28;20032;-65
2022/03/13 09:06:25;;;;;;;2.83;1.45;;;8.90;46.80;;;;;;5032939;28;20371;-65
2022/03/13 09:08:51;;;;;;;14.13;4.63;;;8.90;46.50;;;;;;5031410;28;20026;-65
2022/03/13 09:11:17;;;;;;;8.50;3.60;;;8.70;46.70;;;;;;5031867;28;20200;-65
2022/03/13 09:13:42;;;;;;;14.07;4.22;;;8.70;46.50;;;;;;5032575;28;20036;-65
2022/03/13 09:16:08;;;;;;;5.75;3.30;;;8.90;47.00;;;;;;5032040;28;20060;-66
2022/03/13 09:18:34;;;;;;;15.40;5.50;;;8.90;46.60;;;;;;5031837;28;20037;-66
2022/03/13 09:21:00;;;;;;;12.32;5.22;;;9.00;47.10;;;;;;5032289;28;20025;-66
2022/03/13 09:23:26;;;;;;;14.95;6.38;;;9.00;46.70;;;;;;5024380;28;20026;-66
2022/03/13 09:25:53;;;;;;;8.18;4.15;;;9.10;46.70;;;;;;5018373;28;20037;-66
2022/03/13 09:28:19;;;;;;;7.05;3.10;;;9.10;47.20;;;;;;5032360;28;20021;-66
2022/03/13 09:30:44;;;;;;;8.02;4.40;;;9.20;46.50;;;;;;5032338;28;20029;-66
2022/03/13 09:33:12;;;;;;;5.72;3.70;;;9.10;46.20;;;;;;5030875;28;20047;-66
2022/03/13 09:35:38;;;;;;;7.95;3.88;;;9.10;46.40;;;;;;5031712;28;20501;-66
2022/03/13 09:38:04;;;;;;;18.13;7.45;;;9.10;46.20;;;;;;5028997;28;20045;-66
2022/03/13 09:40:30;;;;;;;22.02;8.35;;;9.20;46.90;;;;;;5035633;28;20029;-66
2022/03/13 09:42:55;;;;;;;18.40;7.20;;;9.30;46.20;;;;;;5032382;28;20524;-66
2022/03/13 09:45:21;;;;;;;18.90;6.82;;;9.40;46.60;;;;;;5030658;28;20029;-66
2022/03/13 09:47:48;;;;;;;11.57;4.00;;;9.40;47.00;;;;;;5033285;28;20021;-66
2022/03/13 09:50:14;;;;;;;15.30;5.88;;;9.60;46.90;;;;;;5039344;28;20382;-66
2022/03/13 09:52:41;;;;;;;10.65;5.72;;;9.60;46.30;;;;;;5031719;28;20473;-66
2022/03/13 09:55:09;;;;;;;12.48;5.75;;;9.60;47.00;;;;;;5029605;28;20048;-67
2022/03/13 09:57:36;;;;;;;11.70;4.45;;;9.60;46.20;;;;;;5031763;28;20017;-66
2022/03/13 10:00:05;;;;;;;13.75;6.22;;;9.50;45.90;;;;;;5031734;28;20485;-66
2022/03/13 10:02:36;;;;;;;14.15;7.00;;;9.60;46.70;;;;;;5031239;28;20057;-66
2022/03/13 10:05:14;;;;;;;16.63;6.72;;;9.70;46.30;;;;;;5031438;28;20095;-66
2022/03/13 10:07:55;;;;;;;12.32;4.82;;;9.70;46.40;;;;;;5031479;28;20041;-66
2022/03/13 10:10:22;;;;;;;18.23;4.38;;;9.90;46.30;;;;;;5032556;28;20360;-66
2022/03/13 10:12:49;;;;;;;14.93;5.10;;;9.90;46.00;;;;;;5032758;28;20160;-66
2022/03/13 10:15:15;;;;;;;11.57;4.18;;;10.00;46.30;;;;;;5030696;28;20037;-66
2022/03/13 10:17:42;;;;;;;14.10;6.47;;;10.00;46.60;;;;;;5030929;28;20022;-66
2022/03/13 10:20:23;;;;;;;18.83;7.43;;;10.20;47.30;;;;;;5035471;28;20128;-66
2022/03/13 10:23:00;;;;;;;8.20;4.07;;;10.30;46.80;;;;;;5030980;28;20022;-66
2022/03/13 10:25:34;;;;;;;15.00;6.38;;;10.30;46.70;;;;;;5030543;28;20025;-66
2022/03/13 10:28:20;;;;;;;15.82;7.10;;;10.40;47.00;;;;;;5031137;28;20029;-66
2022/03/13 10:30:59;;;;;;;14.13;6.45;;;10.50;45.90;;;;;;5028860;28;20060;-65
2022/03/13 10:33:27;;;;;;;18.25;7.50;;;10.50;46.30;;;;;;5030557;28;20034;-66
2022/03/13 10:36:07;;;;;;;10.13;5.18;;;10.50;46.70;;;;;;5031463;28;20083;-66
2022/03/13 10:38:34;;;;;;;16.10;6.80;;;10.60;46.10;;;;;;5014167;28;20128;-66
2022/03/13 10:41:01;;;;;;;13.55;4.88;;;10.80;47.00;;;;;;5029884;28;20026;-66
2022/03/13 10:43:29;;;;;;;20.00;7.28;;;10.90;46.90;;;;;;5030406;28;20017;-66
2022/03/13 10:45:56;;;;;;;18.10;6.45;;;10.80;46.70;;;;;;5030764;28;20026;-66
2022/03/13 10:48:32;;;;;;;17.25;8.25;;;10.90;47.60;;;;;;5029393;28;20076;-66
2022/03/13 10:51:00;;;;;;;17.33;7.25;;;11.00;46.70;;;;;;5030221;28;20033;-66
2022/03/13 10:53:27;;;;;;;13.52;6.25;;;11.10;46.60;;;;;;5028545;28;20478;-67
2022/03/13 10:56:02;;;;;;;19.05;7.47;;;11.20;46.90;;;;;;5030612;28;20438;-66
2022/03/13 10:58:34;;;;;;;11.90;5.65;;;11.20;47.30;;;;;;5030104;28;20392;-66
2022/03/13 11:01:10;;;;;;;14.68;6.85;;;11.20;45.70;;;;;;5030650;28;20116;-66
2022/03/13 11:03:47;;;;;;;15.65;6.30;;;11.30;46.70;;;;;;5029800;28;20030;-67
2022/03/13 11:06:12;;;;;;;9.52;4.00;;;11.40;47.30;;;;;;5029852;28;20337;-66
2022/03/13 11:08:53;;;;;;;15.65;6.55;;;11.50;47.50;;;;;;5123170;27;20379;-68
2022/03/13 11:11:20;;;;;;;17.77;7.10;;;11.60;47.50;;;;;;5106996;28;20081;-67
2022/03/13 11:13:59;;;;;;;17.80;6.40;;;11.70;47.90;;;;;;5107337;28;20039;-69
2022/03/13 11:16:27;;;;;;;15.65;7.43;;;11.70;46.70;;;;;;5105844;28;20461;-68
2022/03/13 11:19:05;;;;;;;12.32;5.93;;;11.80;46.70;;;;;;5106466;28;20111;-68
2022/03/13 11:21:32;;;;;;;15.48;7.80;;;11.80;46.80;;;;;;5107068;28;20496;-68
2022/03/13 11:24:00;;;;;;;13.98;5.55;;;11.90;47.10;;;;;;5103924;28;20031;-68
2022/03/13 11:26:31;;;;;;;19.15;8.30;;;12.00;47.10;;;;;;5112096;28;20443;-70
2022/03/13 11:28:58;;;;;;;15.30;4.85;;;12.10;47.30;;;;;;5103866;28;20408;-70
2022/03/13 11:31:34;;;;;;;17.33;6.72;;;12.20;47.10;;;;;;5090700;28;20036;-71
2022/03/13 11:34:18;;;;;;;11.57;5.25;;;12.30;46.70;;;;;;5085132;28;20032;-72
2022/03/13 11:36:45;;;;;;;16.95;7.13;;;12.20;46.90;;;;;;5097172;28;20035;-70
2022/03/13 11:39:13;;;;;;;12.77;5.70;;;12.30;46.80;;;;;;5105106;28;20016;-71
2022/03/13 11:41:43;;;;;;;22.88;7.70;;;12.30;45.90;;;;;;5105981;28;20515;-71
2022/03/13 11:44:17;;;;;;;21.93;8.53;;;12.40;46.80;;;;;;5106269;28;20468;-70
2022/03/13 11:46:48;;;;;;;18.77;8.30;;;12.50;45.70;;;;;;5106264;28;20035;-71
2022/03/13 11:49:25;;;;;;;27.58;10.00;;;12.50;46.90;;;;;;5096315;28;20323;-70
2022/03/13 11:52:20;;;;;;;8.18;3.80;;;12.60;45.60;;;;;;5084123;28;20036;-70
2022/03/13 11:54:53;;;;;;;16.27;6.47;;;12.60;47.50;;;;;;5096844;28;20029;-70
2022/03/13 11:57:42;;;;;;;16.00;5.75;;;12.80;46.40;;;;;;5073947;28;20032;-71
2022/03/13 12:00:10;;;;;;;14.20;6.30;;;12.80;45.70;;;;;;5074759;28;20016;-70
2022/03/13 12:02:46;;;;;;;15.88;7.95;;;13.00;45.90;;;;;;5073448;28;20107;-70
2022/03/13 12:05:28;;;;;;;14.25;7.63;;;13.10;46.60;;;;;;5074693;28;20373;-70
2022/03/13 12:08:05;;;;;;;14.88;6.85;;;13.00;45.00;;;;;;5074021;28;20036;-70
2022/03/13 12:10:41;;;;;;;16.48;6.90;;;13.00;46.10;;;;;;5084582;28;20036;-70
2022/03/13 12:13:11;;;;;;;18.88;7.90;;;13.00;47.60;;;;;;5085273;28;20035;-71
2022/03/13 12:15:41;;;;;;;16.02;6.25;;;13.00;46.20;;;;;;5085705;28;20390;-72
2022/03/13 12:18:21;;;;;;;15.25;6.55;;;13.10;46.20;;;;;;5083757;28;20028;-71
2022/03/13 12:20:48;;;;;;;11.10;4.80;;;13.10;45.60;;;;;;5072039;28;20090;-70
2022/03/13 12:23:33;;;;;;;17.73;6.75;;;13.30;45.90;;;;;;5070721;28;20028;-71
2022/03/13 12:26:18;;;;;;;16.50;6.35;;;13.30;46.10;;;;;;5069741;28;20035;-70
2022/03/13 12:28:44;;;;;;;18.45;6.35;;;13.30;44.60;;;;;;5091758;28;20075;-70
2022/03/13 12:31:11;;;;;;;14.73;6.20;;;13.30;46.60;;;;;;5091085;28;20113;-71
2022/03/13 12:33:48;;;;;;;12.85;6.18;;;13.40;46.30;;;;;;5090706;28;20655;-71
2022/03/13 12:36:15;;;;;;;15.02;7.40;;;13.40;42.40;;;;;;5091769;28;20020;-67
2022/03/13 12:38:43;;;;;;;11.70;5.47;;;13.50;42.10;;;;;;5092027;28;20020;-70
2022/03/13 12:41:11;;;;;;;18.10;7.45;;;13.40;43.50;;;;;;5073084;28;20040;-72
2022/03/13 12:43:49;;;;;;;17.95;7.97;;;13.40;41.70;;;;;;5071067;28;20028;-72
2022/03/13 12:46:17;;;;;;;16.10;6.95;;;13.30;42.50;;;;;;5071961;28;20032;-72
2022/03/13 12:49:06;;;;;;;18.60;7.55;;;13.40;43.60;;;;;;5071509;28;20120;-72
2022/03/13 12:51:36;;;;;;;7.27;3.83;;;13.40;43.10;;;;;;5071320;28;20024;-71
2022/03/13 12:54:07;;;;;;;12.10;4.63;;;13.50;42.70;;;;;;5071376;28;20505;-71
2022/03/13 12:56:35;;;;;;;14.07;5.10;;;13.60;42.00;;;;;;5070058;28;20036;-72
2022/03/13 12:59:00;;;;;;;14.90;6.63;;;13.70;42.90;;;;;;5070336;28;20486;-72
2022/03/13 13:01:26;;;;;;;13.50;4.75;;;13.80;42.20;;;;;;5066828;28;20505;-72
2022/03/13 13:03:53;;;;;;;14.38;5.68;;;13.70;42.40;;;;;;5069357;28;20025;-71
2022/03/13 13:06:39;;;;;;;17.45;5.75;;;13.70;43.90;;;;;;5055771;28;20024;-71